createdAt,value
2019-03-09T09:39:53.487Z,21.16
2019-03-09T09:42:27.409Z,20.58
2019-03-09T09:45:01.259Z,20.23
2019-03-09T09:47:35.448Z,19.69
2019-03-09T09:50:10.505Z,19.66
2019-03-09T09:52:44.892Z,20.29
2019-03-09T09:55:19.570Z,20.77
2019-03-09T09:57:54.054Z,21.25
2019-03-09T10:00:36.935Z,21.77
2019-03-09T10:03:11.110Z,21.91
2019-03-09T10:05:45.386Z,21.98
2019-03-09T10:08:19.468Z,22.04
2019-03-09T10:10:55.918Z,22.27
2019-03-09T10:13:29.832Z,22.12
2019-03-09T10:16:04.040Z,22.15
2019-03-09T10:18:38.583Z,22.40
2019-03-09T10:21:10.375Z,22.83
2019-03-09T10:23:42.708Z,22.95
2019-03-09T10:26:14.827Z,23.31
2019-03-09T10:28:47.608Z,23.68
2019-03-09T10:31:20.474Z,23.56
2019-03-09T10:33:52.649Z,23.95
2019-03-09T10:36:24.758Z,24.30
2019-03-09T10:38:56.729Z,24.03
2019-03-09T10:41:28.760Z,24.15
2019-03-09T10:44:02.677Z,23.04
2019-03-09T10:46:37.440Z,22.74
2019-03-09T10:49:10.932Z,21.92
2019-03-09T10:51:44.745Z,21.61
2019-03-09T10:54:18.613Z,21.36
2019-03-09T10:56:52.539Z,21.78
2019-03-09T10:59:26.701Z,22.54
2019-03-09T11:02:10.243Z,22.91
2019-03-09T11:04:43.635Z,23.01
2019-03-09T11:07:17.828Z,23.12
2019-03-09T11:09:51.512Z,23.76
2019-03-09T11:12:26.205Z,24.28
2019-03-09T11:15:01.460Z,24.45
2019-03-09T11:17:37.260Z,24.25
2019-03-09T11:20:12.331Z,23.99
2019-03-09T11:22:46.349Z,22.94
2019-03-09T11:25:20.477Z,22.81
2019-03-09T11:27:54.459Z,22.76
2019-03-09T11:30:28.619Z,22.98
2019-03-09T11:33:02.834Z,23.01
2019-03-09T11:35:34.931Z,22.95
2019-03-09T11:38:06.766Z,23.13
2019-03-09T11:40:57.270Z,23.16
2019-03-09T11:43:40.606Z,23.21
2019-03-09T11:46:26.862Z,23.52
2019-03-09T11:49:10.972Z,23.35
2019-03-09T11:51:45.653Z,22.30
2019-03-09T11:54:31.683Z,22.33
2019-03-09T11:57:10.501Z,22.25
2019-03-09T11:59:42.308Z,21.48
2019-03-09T12:02:14.390Z,21.09
2019-03-09T12:04:47.356Z,21.21
2019-03-09T12:07:19.456Z,21.46
2019-03-09T12:09:51.384Z,21.39
2019-03-09T12:12:23.275Z,21.08
2019-03-09T12:14:55.328Z,20.86
2019-03-09T12:31:57.923Z,20.22
2019-03-09T12:34:44.420Z,20.34
2019-03-09T12:37:29.923Z,20.59
2019-03-09T12:40:10.179Z,20.47
2019-03-09T12:42:44.240Z,20.32
2019-03-09T12:45:18.592Z,20.61
2019-03-09T12:47:52.949Z,20.78
2019-03-09T12:50:27.175Z,20.84
2019-03-09T12:53:01.483Z,20.86
2019-03-09T12:55:36.419Z,20.80
2019-03-09T12:58:09.833Z,20.75
2019-03-09T13:00:43.797Z,20.89
2019-03-09T13:03:18.246Z,20.78
2019-03-09T13:05:52.297Z,20.37
2019-03-09T13:08:26.401Z,20.42
2019-03-09T13:11:00.606Z,20.63
2019-03-09T13:13:34.523Z,20.78
2019-03-09T13:16:08.753Z,21.34
2019-03-09T13:18:42.701Z,21.69
2019-03-09T13:21:18.238Z,22.45
2019-03-09T13:23:52.184Z,22.79
2019-03-09T13:26:27.234Z,22.37
2019-03-09T13:29:03.397Z,21.79
2019-03-09T13:31:37.847Z,22.32
2019-03-09T13:34:11.801Z,23.46
2019-03-09T13:36:45.693Z,24.03
2019-03-09T13:39:20.456Z,24.10
2019-03-09T13:42:05.340Z,24.48
2019-03-09T13:44:51.014Z,24.67
2019-03-09T13:47:35.343Z,24.67
2019-03-09T13:50:11.357Z,24.49
2019-03-09T13:52:57.343Z,23.75
2019-03-09T13:55:41.916Z,24.27
2019-03-09T13:58:28.495Z,24.53
2019-03-09T14:01:09.521Z,24.23
2019-03-09T14:03:43.286Z,23.39
2019-03-09T14:06:17.704Z,23.72
2019-03-09T14:08:51.832Z,23.38
2019-03-09T14:11:25.926Z,23.09
2019-03-09T14:13:59.683Z,22.89
2019-03-09T14:16:33.843Z,22.80
2019-03-09T14:19:09.444Z,22.42
2019-03-09T14:21:43.391Z,22.52
2019-03-09T14:24:17.481Z,22.76
2019-03-09T14:26:51.652Z,22.32
2019-03-09T14:29:25.856Z,22.22
2019-03-09T14:32:06.255Z,22.37
2019-03-09T14:34:40.316Z,22.15
2019-03-09T14:37:15.317Z,22.03
2019-03-09T14:39:49.203Z,22.34
2019-03-09T14:42:35.235Z,22.01
2019-03-09T14:45:21.331Z,21.65
2019-03-09T14:48:06.206Z,20.95
2019-03-09T14:50:48.779Z,21.22
2019-03-09T14:53:22.669Z,21.43
2019-03-09T14:56:00.327Z,21.66
2019-03-09T14:58:34.858Z,21.70
2019-03-09T15:01:09.524Z,22.07
2019-03-09T15:03:43.999Z,22.02
2019-03-09T15:18:34.675Z,22.38
2019-03-09T15:21:09.985Z,21.99
2019-03-09T15:23:44.314Z,21.61
2019-03-09T15:26:21.746Z,21.28
2019-03-09T15:28:55.723Z,21.11
2019-03-09T15:31:30.367Z,20.92
2019-03-09T15:34:04.540Z,20.62
2019-03-09T15:36:38.656Z,20.39
2019-03-09T15:39:13.179Z,20.13
2019-03-09T15:41:48.356Z,20.02
2019-03-09T15:44:22.440Z,19.86
2019-03-09T15:46:56.338Z,19.82
2019-03-09T15:49:30.443Z,19.72
2019-03-09T15:52:04.953Z,19.60
2019-03-09T15:54:38.879Z,19.44
2019-03-09T15:57:16.562Z,19.35
2019-03-09T15:59:51.033Z,19.29
2019-03-09T16:02:25.273Z,19.15
